sensor_id;sensor_type;location;lat;lon;timestamp;P1;durP1;ratioP1;P2;durP2;ratioP2
63874;SDS011;51595;24.180;-110.296;2022-09-24T00:01:09;5.20;;;2.10;;
63874;SDS011;51595;24.180;-110.296;2022-09-24T00:03:37;5.57;;;1.83;;
63874;SDS011;51595;24.180;-110.296;2022-09-24T00:06:04;3.28;;;1.88;;
63874;SDS011;51595;24.180;-110.296;2022-09-24T00:08:33;2.72;;;1.67;;
63874;SDS011;51595;24.180;-110.296;2022-09-24T00:11:06;4.47;;;1.75;;
63874;SDS011;51595;24.180;-110.296;2022-09-24T00:13:36;3.42;;;1.73;;
63874;SDS011;51595;24.180;-110.296;2022-09-24T00:16:04;5.40;;;1.90;;
63874;SDS011;51595;24.180;-110.296;2022-09-24T00:18:33;4.82;;;1.70;;
63874;SDS011;51595;24.180;-110.296;2022-09-24T00:21:09;4.13;;;1.60;;
63874;SDS011;51595;24.180;-110.296;2022-09-24T00:23:53;6.30;;;2.30;;
63874;SDS011;51595;24.180;-110.296;2022-09-24T00:26:21;5.22;;;1.85;;
63874;SDS011;51595;24.180;-110.296;2022-09-24T00:29:07;4.18;;;1.65;;
63874;SDS011;51595;24.180;-110.296;2022-09-24T00:31:35;5.57;;;1.98;;
63874;SDS011;51595;24.180;-110.296;2022-09-24T00:34:02;7.13;;;2.10;;
63874;SDS011;51595;24.180;-110.296;2022-09-24T00:36:28;5.63;;;1.50;;
63874;SDS011;51595;24.180;-110.296;2022-09-24T00:38:55;3.88;;;1.75;;
63874;SDS011;51595;24.180;-110.296;2022-09-24T00:41:30;4.85;;;1.60;;
63874;SDS011;51595;24.180;-110.296;2022-09-24T00:43:59;4.05;;;1.88;;
63874;SDS011;51595;24.180;-110.296;2022-09-24T00:46:45;5.15;;;1.80;;
63874;SDS011;51595;24.180;-110.296;2022-09-24T00:49:13;2.83;;;1.60;;
63874;SDS011;51595;24.180;-110.296;2022-09-24T00:51:43;4.68;;;1.85;;
63874;SDS011;51595;24.180;-110.296;2022-09-24T00:54:20;3.30;;;1.85;;
63874;SDS011;51595;24.180;-110.296;2022-09-24T00:56:51;4.22;;;1.80;;
63874;SDS011;51595;24.180;-110.296;2022-09-24T00:59:19;4.03;;;1.67;;
63874;SDS011;51595;24.180;-110.296;2022-09-24T01:01:48;3.30;;;1.83;;
63874;SDS011;51595;24.180;-110.296;2022-09-24T01:04:17;4.05;;;2.00;;
63874;SDS011;51595;24.180;-110.296;2022-09-24T01:06:47;15.93;;;2.35;;
63874;SDS011;51595;24.180;-110.296;2022-09-24T01:09:14;6.57;;;1.80;;
63874;SDS011;51595;24.180;-110.296;2022-09-24T01:26:02;5.85;;;2.30;;
63874;SDS011;51595;24.180;-110.296;2022-09-24T01:31:52;8.57;;;2.30;;
63874;SDS011;51595;24.180;-110.296;2022-09-24T01:34:46;4.93;;;1.88;;
63874;SDS011;51595;24.180;-110.296;2022-09-24T01:37:16;8.55;;;1.95;;
63874;SDS011;51595;24.180;-110.296;2022-09-24T01:39:45;7.15;;;1.75;;
63874;SDS011;51595;24.180;-110.296;2022-09-24T01:42:12;4.72;;;1.70;;
63874;SDS011;51595;24.180;-110.296;2022-09-24T01:44:40;6.47;;;2.03;;
63874;SDS011;51595;24.180;-110.296;2022-09-24T01:47:08;11.05;;;2.42;;
63874;SDS011;51595;24.180;-110.296;2022-09-24T01:49:39;6.70;;;2.03;;
63874;SDS011;51595;24.180;-110.296;2022-09-24T01:52:06;4.18;;;1.95;;
63874;SDS011;51595;24.180;-110.296;2022-09-24T01:54:40;6.60;;;2.30;;
63874;SDS011;51595;24.180;-110.296;2022-09-24T02:02:23;6.40;;;1.95;;
63874;SDS011;51595;24.180;-110.296;2022-09-24T02:05:03;2.55;;;2.17;;
63874;SDS011;51595;24.180;-110.296;2022-09-24T02:07:37;6.85;;;2.15;;
63874;SDS011;51595;24.180;-110.296;2022-09-24T02:10:18;5.95;;;2.20;;
63874;SDS011;51595;24.180;-110.296;2022-09-24T02:12:46;4.90;;;2.30;;
63874;SDS011;51595;24.180;-110.296;2022-09-24T02:15:22;7.65;;;1.95;;
63874;SDS011;51595;24.180;-110.296;2022-09-24T02:17:55;4.90;;;2.00;;
63874;SDS011;51595;24.180;-110.296;2022-09-24T02:20:25;8.45;;;2.33;;
63874;SDS011;51595;24.180;-110.296;2022-09-24T02:22:53;6.78;;;2.00;;
63874;SDS011;51595;24.180;-110.296;2022-09-24T02:25:29;10.15;;;2.90;;
63874;SDS011;51595;24.180;-110.296;2022-09-24T02:27:59;4.57;;;2.10;;
63874;SDS011;51595;24.180;-110.296;2022-09-24T02:30:27;9.68;;;2.50;;
63874;SDS011;51595;24.180;-110.296;2022-09-24T02:32:59;6.85;;;2.45;;
63874;SDS011;51595;24.180;-110.296;2022-09-24T02:35:26;7.75;;;2.25;;
63874;SDS011;51595;24.180;-110.296;2022-09-24T02:37:52;3.05;;;1.92;;
63874;SDS011;51595;24.180;-110.296;2022-09-24T02:40:19;7.53;;;2.30;;
63874;SDS011;51595;24.180;-110.296;2022-09-24T02:42:45;8.18;;;2.00;;
63874;SDS011;51595;24.180;-110.296;2022-09-24T02:45:13;6.95;;;2.33;;
63874;SDS011;51595;24.180;-110.296;2022-09-24T02:47:39;9.13;;;2.10;;
63874;SDS011;51595;24.180;-110.296;2022-09-24T02:50:06;6.47;;;1.85;;
63874;SDS011;51595;24.180;-110.296;2022-09-24T02:52:33;3.72;;;2.08;;
63874;SDS011;51595;24.180;-110.296;2022-09-24T02:54:59;6.57;;;2.30;;
63874;SDS011;51595;24.180;-110.296;2022-09-24T02:57:26;5.43;;;2.20;;
63874;SDS011;51595;24.180;-110.296;2022-09-24T02:59:52;2.80;;;1.80;;
63874;SDS011;51595;24.180;-110.296;2022-09-24T03:02:19;4.50;;;1.80;;
63874;SDS011;51595;24.180;-110.296;2022-09-24T03:04:45;2.78;;;1.67;;
63874;SDS011;51595;24.180;-110.296;2022-09-24T03:07:14;4.45;;;2.05;;
63874;SDS011;51595;24.180;-110.296;2022-09-24T03:09:40;7.55;;;2.20;;
63874;SDS011;51595;24.180;-110.296;2022-09-24T03:12:07;4.97;;;2.10;;
63874;SDS011;51595;24.180;-110.296;2022-09-24T03:14:33;5.22;;;2.20;;
63874;SDS011;51595;24.180;-110.296;2022-09-24T03:17:00;9.27;;;2.10;;
63874;SDS011;51595;24.180;-110.296;2022-09-24T03:19:26;5.22;;;1.75;;
63874;SDS011;51595;24.180;-110.296;2022-09-24T03:21:53;8.93;;;2.10;;
63874;SDS011;51595;24.180;-110.296;2022-09-24T03:24:20;6.30;;;1.88;;
63874;SDS011;51595;24.180;-110.296;2022-09-24T03:26:46;7.47;;;2.20;;
63874;SDS011;51595;24.180;-110.296;2022-09-24T03:29:13;8.38;;;2.10;;
63874;SDS011;51595;24.180;-110.296;2022-09-24T03:31:39;7.03;;;2.20;;
63874;SDS011;51595;24.180;-110.296;2022-09-24T03:34:05;5.70;;;1.85;;
63874;SDS011;51595;24.180;-110.296;2022-09-24T03:36:32;9.23;;;2.15;;
63874;SDS011;51595;24.180;-110.296;2022-09-24T03:38:58;7.65;;;1.75;;
63874;SDS011;51595;24.180;-110.296;2022-09-24T03:41:25;5.25;;;1.88;;
63874;SDS011;51595;24.180;-110.296;2022-09-24T03:43:52;13.70;;;2.83;;
63874;SDS011;51595;24.180;-110.296;2022-09-24T03:46:19;7.75;;;2.47;;
63874;SDS011;51595;24.180;-110.296;2022-09-24T03:48:48;14.02;;;2.17;;
63874;SDS011;51595;24.180;-110.296;2022-09-24T03:51:15;4.32;;;2.30;;
63874;SDS011;51595;24.180;-110.296;2022-09-24T03:53:43;8.80;;;2.65;;
63874;SDS011;51595;24.180;-110.296;2022-09-24T03:56:10;10.00;;;2.50;;
63874;SDS011;51595;24.180;-110.296;2022-09-24T03:58:37;16.83;;;3.33;;
63874;SDS011;51595;24.180;-110.296;2022-09-24T04:01:05;16.75;;;2.70;;
63874;SDS011;51595;24.180;-110.296;2022-09-24T04:03:32;11.70;;;3.47;;
63874;SDS011;51595;24.180;-110.296;2022-09-24T04:06:00;10.80;;;2.75;;
63874;SDS011;51595;24.180;-110.296;2022-09-24T04:08:27;14.73;;;3.78;;
63874;SDS011;51595;24.180;-110.296;2022-09-24T04:10:53;11.98;;;2.97;;
63874;SDS011;51595;24.180;-110.296;2022-09-24T04:13:20;10.82;;;3.70;;
63874;SDS011;51595;24.180;-110.296;2022-09-24T04:15:46;13.20;;;3.63;;
63874;SDS011;51595;24.180;-110.296;2022-09-24T04:18:14;13.95;;;3.20;;
63874;SDS011;51595;24.180;-110.296;2022-09-24T04:20:41;11.10;;;3.03;;
63874;SDS011;51595;24.180;-110.296;2022-09-24T04:23:09;18.15;;;2.90;;
63874;SDS011;51595;24.180;-110.296;2022-09-24T04:25:36;11.05;;;3.15;;
63874;SDS011;51595;24.180;-110.296;2022-09-24T04:28:05;12.57;;;2.53;;
63874;SDS011;51595;24.180;-110.296;2022-09-24T04:30:33;14.38;;;3.10;;
63874;SDS011;51595;24.180;-110.296;2022-09-24T04:33:00;11.70;;;3.42;;
63874;SDS011;51595;24.180;-110.296;2022-09-24T04:35:28;10.70;;;2.83;;
63874;SDS011;51595;24.180;-110.296;2022-09-24T04:37:56;10.32;;;3.38;;
63874;SDS011;51595;24.180;-110.296;2022-09-24T04:40:23;8.48;;;2.70;;
63874;SDS011;51595;24.180;-110.296;2022-09-24T04:42:50;9.07;;;3.00;;
63874;SDS011;51595;24.180;-110.296;2022-09-24T04:45:17;11.27;;;2.83;;
63874;SDS011;51595;24.180;-110.296;2022-09-24T04:47:47;8.05;;;2.78;;
63874;SDS011;51595;24.180;-110.296;2022-09-24T04:50:26;14.98;;;3.83;;
63874;SDS011;51595;24.180;-110.296;2022-09-24T04:52:57;9.43;;;2.60;;
63874;SDS011;51595;24.180;-110.296;2022-09-24T04:55:24;5.78;;;2.80;;
63874;SDS011;51595;24.180;-110.296;2022-09-24T04:57:55;12.02;;;3.45;;
63874;SDS011;51595;24.180;-110.296;2022-09-24T05:00:22;9.38;;;3.17;;
63874;SDS011;51595;24.180;-110.296;2022-09-24T05:02:58;20.50;;;3.67;;
63874;SDS011;51595;24.180;-110.296;2022-09-24T05:05:28;15.18;;;3.63;;
63874;SDS011;51595;24.180;-110.296;2022-09-24T05:07:54;9.32;;;3.22;;
63874;SDS011;51595;24.180;-110.296;2022-09-24T05:10:25;19.95;;;3.05;;
63874;SDS011;51595;24.180;-110.296;2022-09-24T05:12:52;8.63;;;3.15;;
63874;SDS011;51595;24.180;-110.296;2022-09-24T05:15:19;10.23;;;3.55;;
63874;SDS011;51595;24.180;-110.296;2022-09-24T05:17:46;16.50;;;3.40;;
63874;SDS011;51595;24.180;-110.296;2022-09-24T05:20:13;14.95;;;3.55;;
63874;SDS011;51595;24.180;-110.296;2022-09-24T05:22:41;9.25;;;3.35;;
63874;SDS011;51595;24.180;-110.296;2022-09-24T05:25:09;12.88;;;3.90;;
63874;SDS011;51595;24.180;-110.296;2022-09-24T05:27:36;12.77;;;4.10;;
63874;SDS011;51595;24.180;-110.296;2022-09-24T05:30:08;13.75;;;3.88;;
63874;SDS011;51595;24.180;-110.296;2022-09-24T05:32:35;14.60;;;4.60;;
63874;SDS011;51595;24.180;-110.296;2022-09-24T05:35:01;10.70;;;4.25;;
63874;SDS011;51595;24.180;-110.296;2022-09-24T05:37:28;13.60;;;3.80;;
63874;SDS011;51595;24.180;-110.296;2022-09-24T05:39:54;14.82;;;3.78;;
63874;SDS011;51595;24.180;-110.296;2022-09-24T05:42:41;10.73;;;3.75;;
63874;SDS011;51595;24.180;-110.296;2022-09-24T05:45:07;18.65;;;5.15;;
63874;SDS011;51595;24.180;-110.296;2022-09-24T05:47:34;14.23;;;3.65;;
63874;SDS011;51595;24.180;-110.296;2022-09-24T05:50:00;14.45;;;3.25;;
63874;SDS011;51595;24.180;-110.296;2022-09-24T05:52:27;11.60;;;3.75;;
63874;SDS011;51595;24.180;-110.296;2022-09-24T05:54:53;14.55;;;3.40;;
63874;SDS011;51595;24.180;-110.296;2022-09-24T05:57:20;11.93;;;4.10;;
63874;SDS011;51595;24.180;-110.296;2022-09-24T05:59:47;13.32;;;4.57;;
63874;SDS011;51595;24.180;-110.296;2022-09-24T06:02:13;12.00;;;3.80;;
63874;SDS011;51595;24.180;-110.296;2022-09-24T06:04:39;15.52;;;3.70;;
63874;SDS011;51595;24.180;-110.296;2022-09-24T06:07:06;13.52;;;3.85;;
63874;SDS011;51595;24.180;-110.296;2022-09-24T06:09:32;14.82;;;3.63;;
63874;SDS011;51595;24.180;-110.296;2022-09-24T06:12:02;10.43;;;3.33;;
63874;SDS011;51595;24.180;-110.296;2022-09-24T06:14:31;15.88;;;3.97;;
63874;SDS011;51595;24.180;-110.296;2022-09-24T06:17:03;11.40;;;3.67;;
63874;SDS011;51595;24.180;-110.296;2022-09-24T06:19:36;12.60;;;3.63;;
63874;SDS011;51595;24.180;-110.296;2022-09-24T06:22:03;13.07;;;3.70;;
63874;SDS011;51595;24.180;-110.296;2022-09-24T06:24:33;15.20;;;4.10;;
63874;SDS011;51595;24.180;-110.296;2022-09-24T06:26:59;10.43;;;3.75;;
63874;SDS011;51595;24.180;-110.296;2022-09-24T06:29:27;14.60;;;4.20;;
63874;SDS011;51595;24.180;-110.296;2022-09-24T06:31:57;12.43;;;3.85;;
63874;SDS011;51595;24.180;-110.296;2022-09-24T06:34:26;12.02;;;4.43;;
63874;SDS011;51595;24.180;-110.296;2022-09-24T06:36:53;12.50;;;3.38;;
63874;SDS011;51595;24.180;-110.296;2022-09-24T06:39:24;12.50;;;3.63;;
63874;SDS011;51595;24.180;-110.296;2022-09-24T06:41:54;12.57;;;3.78;;
63874;SDS011;51595;24.180;-110.296;2022-09-24T06:44:30;15.40;;;4.43;;
63874;SDS011;51595;24.180;-110.296;2022-09-24T06:46:59;10.20;;;3.28;;
63874;SDS011;51595;24.180;-110.296;2022-09-24T06:49:26;11.13;;;3.72;;
63874;SDS011;51595;24.180;-110.296;2022-09-24T06:51:56;9.35;;;3.83;;
63874;SDS011;51595;24.180;-110.296;2022-09-24T06:54:25;11.00;;;3.60;;
63874;SDS011;51595;24.180;-110.296;2022-09-24T06:56:55;9.55;;;3.42;;
63874;SDS011;51595;24.180;-110.296;2022-09-24T06:59:22;13.00;;;3.45;;
63874;SDS011;51595;24.180;-110.296;2022-09-24T07:01:49;8.88;;;3.67;;
63874;SDS011;51595;24.180;-110.296;2022-09-24T07:04:19;10.98;;;3.47;;
63874;SDS011;51595;24.180;-110.296;2022-09-24T07:06:45;10.88;;;3.45;;
63874;SDS011;51595;24.180;-110.296;2022-09-24T07:09:34;11.48;;;3.97;;
63874;SDS011;51595;24.180;-110.296;2022-09-24T07:12:23;13.60;;;3.70;;
63874;SDS011;51595;24.180;-110.296;2022-09-24T07:14:50;12.07;;;3.50;;
63874;SDS011;51595;24.180;-110.296;2022-09-24T07:17:19;9.57;;;3.33;;
63874;SDS011;51595;24.180;-110.296;2022-09-24T07:19:55;11.35;;;3.55;;
63874;SDS011;51595;24.180;-110.296;2022-09-24T07:22:24;7.75;;;3.00;;
63874;SDS011;51595;24.180;-110.296;2022-09-24T07:24:51;12.35;;;4.13;;
63874;SDS011;51595;24.180;-110.296;2022-09-24T07:27:21;8.32;;;3.42;;
63874;SDS011;51595;24.180;-110.296;2022-09-24T07:29:48;5.10;;;2.78;;
63874;SDS011;51595;24.180;-110.296;2022-09-24T07:32:19;11.70;;;3.55;;
63874;SDS011;51595;24.180;-110.296;2022-09-24T07:34:46;8.20;;;3.13;;
63874;SDS011;51595;24.180;-110.296;2022-09-24T07:37:15;13.48;;;3.10;;
63874;SDS011;51595;24.180;-110.296;2022-09-24T07:39:46;8.68;;;2.97;;
63874;SDS011;51595;24.180;-110.296;2022-09-24T07:42:13;9.05;;;3.25;;
63874;SDS011;51595;24.180;-110.296;2022-09-24T07:44:39;9.32;;;3.25;;
63874;SDS011;51595;24.180;-110.296;2022-09-24T07:47:07;9.05;;;2.80;;
63874;SDS011;51595;24.180;-110.296;2022-09-24T07:49:33;8.40;;;3.47;;
63874;SDS011;51595;24.180;-110.296;2022-09-24T07:52:01;13.48;;;3.38;;
63874;SDS011;51595;24.180;-110.296;2022-09-24T07:54:27;6.55;;;2.95;;
63874;SDS011;51595;24.180;-110.296;2022-09-24T07:56:54;9.68;;;3.70;;
63874;SDS011;51595;24.180;-110.296;2022-09-24T07:59:21;10.20;;;3.45;;
63874;SDS011;51595;24.180;-110.296;2022-09-24T08:01:47;7.72;;;3.13;;
63874;SDS011;51595;24.180;-110.296;2022-09-24T08:04:14;9.07;;;3.50;;
63874;SDS011;51595;24.180;-110.296;2022-09-24T08:06:42;8.32;;;3.55;;
63874;SDS011;51595;24.180;-110.296;2022-09-24T08:09:08;6.30;;;2.97;;
63874;SDS011;51595;24.180;-110.296;2022-09-24T08:11:36;6.18;;;2.83;;
63874;SDS011;51595;24.180;-110.296;2022-09-24T08:14:03;8.68;;;3.10;;
63874;SDS011;51595;24.180;-110.296;2022-09-24T08:16:30;11.63;;;3.33;;
63874;SDS011;51595;24.180;-110.296;2022-09-24T08:18:56;8.68;;;3.67;;
63874;SDS011;51595;24.180;-110.296;2022-09-24T08:21:23;7.68;;;3.35;;
63874;SDS011;51595;24.180;-110.296;2022-09-24T08:23:49;6.15;;;2.58;;
63874;SDS011;51595;24.180;-110.296;2022-09-24T08:26:15;6.13;;;2.50;;
63874;SDS011;51595;24.180;-110.296;2022-09-24T08:28:42;5.47;;;2.42;;
63874;SDS011;51595;24.180;-110.296;2022-09-24T08:31:11;5.45;;;2.40;;
63874;SDS011;51595;24.180;-110.296;2022-09-24T08:33:38;7.03;;;2.45;;
63874;SDS011;51595;24.180;-110.296;2022-09-24T08:36:06;7.32;;;2.45;;
63874;SDS011;51595;24.180;-110.296;2022-09-24T08:38:34;9.07;;;2.58;;
63874;SDS011;51595;24.180;-110.296;2022-09-24T08:44:00;7.00;;;2.47;;
63874;SDS011;51595;24.180;-110.296;2022-09-24T08:46:36;7.82;;;2.42;;
63874;SDS011;51595;24.180;-110.296;2022-09-24T08:49:34;8.35;;;2.60;;
63874;SDS011;51595;24.180;-110.296;2022-09-24T08:54:59;10.07;;;2.70;;
63874;SDS011;51595;24.180;-110.296;2022-09-24T08:57:32;6.82;;;2.58;;
63874;SDS011;51595;24.180;-110.296;2022-09-24T09:00:03;6.75;;;2.75;;
63874;SDS011;51595;24.180;-110.296;2022-09-24T09:02:38;7.53;;;2.20;;
63874;SDS011;51595;24.180;-110.296;2022-09-24T09:05:35;5.32;;;2.20;;
63874;SDS011;51595;24.180;-110.296;2022-09-24T09:11:42;4.10;;;2.22;;
63874;SDS011;51595;24.180;-110.296;2022-09-24T09:14:24;5.88;;;2.17;;
63874;SDS011;51595;24.180;-110.296;2022-09-24T09:19:39;3.78;;;2.22;;
63874;SDS011;51595;24.180;-110.296;2022-09-24T09:22:15;4.47;;;2.17;;
63874;SDS011;51595;24.180;-110.296;2022-09-24T09:24:47;2.97;;;2.08;;
63874;SDS011;51595;24.180;-110.296;2022-09-24T09:27:16;6.55;;;2.25;;
63874;SDS011;51595;24.180;-110.296;2022-09-24T09:29:47;6.90;;;2.85;;
63874;SDS011;51595;24.180;-110.296;2022-09-24T09:35:28;4.40;;;2.38;;
63874;SDS011;51595;24.180;-110.296;2022-09-24T09:38:09;16.95;;;2.58;;
63874;SDS011;51595;24.180;-110.296;2022-09-24T09:40:52;7.03;;;2.75;;
63874;SDS011;51595;24.180;-110.296;2022-09-24T09:43:23;11.82;;;2.97;;
63874;SDS011;51595;24.180;-110.296;2022-09-24T09:46:05;6.90;;;2.40;;
63874;SDS011;51595;24.180;-110.296;2022-09-24T09:48:42;5.43;;;2.65;;
63874;SDS011;51595;24.180;-110.296;2022-09-24T09:51:21;8.55;;;2.60;;
63874;SDS011;51595;24.180;-110.296;2022-09-24T09:53:57;5.40;;;2.53;;
63874;SDS011;51595;24.180;-110.296;2022-09-24T09:56:42;6.45;;;2.90;;
63874;SDS011;51595;24.180;-110.296;2022-09-24T10:01:38;3.78;;;2.40;;
63874;SDS011;51595;24.180;-110.296;2022-09-24T10:07:10;5.47;;;2.55;;
63874;SDS011;51595;24.180;-110.296;2022-09-24T10:09:41;7.68;;;2.78;;
63874;SDS011;51595;24.180;-110.296;2022-09-24T10:12:15;9.57;;;2.60;;
63874;SDS011;51595;24.180;-110.296;2022-09-24T10:14:56;6.65;;;2.70;;
63874;SDS011;51595;24.180;-110.296;2022-09-24T10:17:36;7.65;;;2.40;;
63874;SDS011;51595;24.180;-110.296;2022-09-24T10:20:08;7.45;;;3.00;;
63874;SDS011;51595;24.180;-110.296;2022-09-24T10:23:14;8.57;;;3.08;;
63874;SDS011;51595;24.180;-110.296;2022-09-24T10:25:53;8.43;;;3.20;;
63874;SDS011;51595;24.180;-110.296;2022-09-24T10:28:26;7.75;;;2.80;;
63874;SDS011;51595;24.180;-110.296;2022-09-24T10:33:46;9.07;;;3.08;;
63874;SDS011;51595;24.180;-110.296;2022-09-24T10:38:46;7.30;;;2.78;;
63874;SDS011;51595;24.180;-110.296;2022-09-24T10:41:36;7.40;;;3.53;;
63874;SDS011;51595;24.180;-110.296;2022-09-24T10:44:03;8.05;;;2.50;;
63874;SDS011;51595;24.180;-110.296;2022-09-24T11:00:16;7.63;;;2.50;;
63874;SDS011;51595;24.180;-110.296;2022-09-24T11:05:51;9.40;;;2.47;;
63874;SDS011;51595;24.180;-110.296;2022-09-24T11:08:38;3.53;;;2.40;;
63874;SDS011;51595;24.180;-110.296;2022-09-24T11:14:36;8.40;;;2.63;;
63874;SDS011;51595;24.180;-110.296;2022-09-24T11:17:26;5.88;;;2.65;;
63874;SDS011;51595;24.180;-110.296;2022-09-24T11:20:01;10.85;;;2.97;;
63874;SDS011;51595;24.180;-110.296;2022-09-24T11:28:22;6.97;;;2.65;;
63874;SDS011;51595;24.180;-110.296;2022-09-24T11:31:06;6.03;;;2.63;;
63874;SDS011;51595;24.180;-110.296;2022-09-24T11:43:25;7.97;;;2.70;;
63874;SDS011;51595;24.180;-110.296;2022-09-24T11:57:01;14.02;;;2.70;;
63874;SDS011;51595;24.180;-110.296;2022-09-24T11:59:52;8.27;;;3.40;;
63874;SDS011;51595;24.180;-110.296;2022-09-24T12:02:41;11.38;;;3.38;;
63874;SDS011;51595;24.180;-110.296;2022-09-24T12:13:17;9.40;;;2.80;;
63874;SDS011;51595;24.180;-110.296;2022-09-24T12:16:05;7.95;;;2.85;;
63874;SDS011;51595;24.180;-110.296;2022-09-24T12:18:55;8.85;;;3.28;;
63874;SDS011;51595;24.180;-110.296;2022-09-24T12:21:45;6.65;;;3.70;;
63874;SDS011;51595;24.180;-110.296;2022-09-24T12:24:21;14.45;;;3.67;;
63874;SDS011;51595;24.180;-110.296;2022-09-24T12:26:50;6.20;;;3.33;;
63874;SDS011;51595;24.180;-110.296;2022-09-24T12:32:30;6.78;;;3.53;;
63874;SDS011;51595;24.180;-110.296;2022-09-24T12:35:30;10.23;;;4.18;;
63874;SDS011;51595;24.180;-110.296;2022-09-24T12:38:16;9.90;;;3.88;;
63874;SDS011;51595;24.180;-110.296;2022-09-24T12:46:24;9.80;;;3.65;;
63874;SDS011;51595;24.180;-110.296;2022-09-24T12:48:55;9.65;;;3.83;;
63874;SDS011;51595;24.180;-110.296;2022-09-24T12:51:23;8.82;;;4.05;;
63874;SDS011;51595;24.180;-110.296;2022-09-24T12:53:59;8.23;;;3.88;;
63874;SDS011;51595;24.180;-110.296;2022-09-24T12:59:58;12.52;;;3.20;;
63874;SDS011;51595;24.180;-110.296;2022-09-24T13:02:41;7.90;;;3.55;;
63874;SDS011;51595;24.180;-110.296;2022-09-24T13:05:24;7.45;;;3.58;;
63874;SDS011;51595;24.180;-110.296;2022-09-24T13:08:37;8.98;;;3.13;;
63874;SDS011;51595;24.180;-110.296;2022-09-24T13:10:56;11.45;;;3.65;;
63874;SDS011;51595;24.180;-110.296;2022-09-24T13:13:39;14.15;;;3.63;;
63874;SDS011;51595;24.180;-110.296;2022-09-24T13:16:17;9.68;;;3.30;;
63874;SDS011;51595;24.180;-110.296;2022-09-24T13:18:51;13.45;;;3.88;;
63874;SDS011;51595;24.180;-110.296;2022-09-24T13:21:24;18.10;;;3.35;;
63874;SDS011;51595;24.180;-110.296;2022-09-24T13:23:52;8.98;;;3.13;;
63874;SDS011;51595;24.180;-110.296;2022-09-24T13:28:53;9.95;;;3.63;;
63874;SDS011;51595;24.180;-110.296;2022-09-24T13:36:51;22.38;;;5.25;;
63874;SDS011;51595;24.180;-110.296;2022-09-24T13:42:31;22.73;;;4.60;;
63874;SDS011;51595;24.180;-110.296;2022-09-24T13:45:14;13.70;;;4.93;;
63874;SDS011;51595;24.180;-110.296;2022-09-24T13:47:46;15.25;;;5.00;;
63874;SDS011;51595;24.180;-110.296;2022-09-24T13:50:44;18.20;;;5.80;;
63874;SDS011;51595;24.180;-110.296;2022-09-24T13:56:10;20.42;;;5.05;;
63874;SDS011;51595;24.180;-110.296;2022-09-24T13:58:39;19.27;;;5.85;;
63874;SDS011;51595;24.180;-110.296;2022-09-24T14:01:11;22.27;;;5.28;;
63874;SDS011;51595;24.180;-110.296;2022-09-24T14:03:42;19.03;;;5.03;;
63874;SDS011;51595;24.180;-110.296;2022-09-24T14:06:33;25.83;;;4.95;;
63874;SDS011;51595;24.180;-110.296;2022-09-24T14:12:18;13.20;;;4.05;;
63874;SDS011;51595;24.180;-110.296;2022-09-24T14:14:52;13.73;;;4.65;;
63874;SDS011;51595;24.180;-110.296;2022-09-24T14:17:21;11.52;;;4.47;;
63874;SDS011;51595;24.180;-110.296;2022-09-24T14:19:52;10.77;;;3.55;;
63874;SDS011;51595;24.180;-110.296;2022-09-24T14:22:22;17.60;;;3.88;;
63874;SDS011;51595;24.180;-110.296;2022-09-24T14:27:42;16.27;;;3.95;;
63874;SDS011;51595;24.180;-110.296;2022-09-24T14:30:16;16.73;;;4.18;;
63874;SDS011;51595;24.180;-110.296;2022-09-24T14:32:49;21.15;;;4.00;;
63874;SDS011;51595;24.180;-110.296;2022-09-24T14:35:38;15.35;;;3.33;;
63874;SDS011;51595;24.180;-110.296;2022-09-24T14:46:01;12.80;;;3.40;;
63874;SDS011;51595;24.180;-110.296;2022-09-24T14:48:32;13.30;;;3.53;;
63874;SDS011;51595;24.180;-110.296;2022-09-24T14:51:00;11.25;;;3.33;;
63874;SDS011;51595;24.180;-110.296;2022-09-24T14:53:31;15.73;;;3.50;;
63874;SDS011;51595;24.180;-110.296;2022-09-24T14:56:17;19.58;;;3.92;;
63874;SDS011;51595;24.180;-110.296;2022-09-24T14:58:44;26.98;;;4.38;;
63874;SDS011;51595;24.180;-110.296;2022-09-24T15:06:13;14.43;;;3.33;;
63874;SDS011;51595;24.180;-110.296;2022-09-24T15:08:52;10.45;;;2.92;;
63874;SDS011;51595;24.180;-110.296;2022-09-24T15:11:43;13.68;;;3.33;;
63874;SDS011;51595;24.180;-110.296;2022-09-24T15:14:20;12.18;;;3.30;;
63874;SDS011;51595;24.180;-110.296;2022-09-24T15:16:52;17.67;;;3.50;;
63874;SDS011;51595;24.180;-110.296;2022-09-24T15:19:20;20.40;;;3.65;;
63874;SDS011;51595;24.180;-110.296;2022-09-24T15:21:48;9.95;;;3.00;;
63874;SDS011;51595;24.180;-110.296;2022-09-24T15:24:20;16.52;;;3.45;;
63874;SDS011;51595;24.180;-110.296;2022-09-24T15:26:57;12.15;;;3.05;;
63874;SDS011;51595;24.180;-110.296;2022-09-24T15:29:25;16.77;;;2.85;;
63874;SDS011;51595;24.180;-110.296;2022-09-24T15:31:52;11.07;;;3.10;;
63874;SDS011;51595;24.180;-110.296;2022-09-24T15:34:19;21.27;;;3.65;;
63874;SDS011;51595;24.180;-110.296;2022-09-24T15:36:46;12.57;;;2.88;;
63874;SDS011;51595;24.180;-110.296;2022-09-24T15:39:13;12.60;;;3.22;;
63874;SDS011;51595;24.180;-110.296;2022-09-24T15:41:42;9.98;;;2.80;;
63874;SDS011;51595;24.180;-110.296;2022-09-24T15:44:22;11.23;;;3.08;;
63874;SDS011;51595;24.180;-110.296;2022-09-24T15:46:49;14.15;;;3.78;;
63874;SDS011;51595;24.180;-110.296;2022-09-24T15:49:17;14.15;;;2.97;;
63874;SDS011;51595;24.180;-110.296;2022-09-24T15:51:58;9.93;;;3.22;;
63874;SDS011;51595;24.180;-110.296;2022-09-24T15:54:38;16.65;;;3.33;;
63874;SDS011;51595;24.180;-110.296;2022-09-24T15:57:05;12.63;;;3.08;;
63874;SDS011;51595;24.180;-110.296;2022-09-24T15:59:31;11.93;;;2.67;;
63874;SDS011;51595;24.180;-110.296;2022-09-24T16:02:01;15.85;;;3.50;;
63874;SDS011;51595;24.180;-110.296;2022-09-24T16:04:35;13.00;;;2.90;;
63874;SDS011;51595;24.180;-110.296;2022-09-24T16:07:02;17.02;;;3.03;;
63874;SDS011;51595;24.180;-110.296;2022-09-24T16:09:28;9.25;;;2.50;;
63874;SDS011;51595;24.180;-110.296;2022-09-24T16:11:55;19.92;;;4.45;;
63874;SDS011;51595;24.180;-110.296;2022-09-24T16:14:21;10.05;;;2.50;;
63874;SDS011;51595;24.180;-110.296;2022-09-24T16:16:48;13.40;;;2.20;;
63874;SDS011;51595;24.180;-110.296;2022-09-24T16:19:14;8.07;;;2.47;;
63874;SDS011;51595;24.180;-110.296;2022-09-24T16:21:41;19.63;;;3.00;;
63874;SDS011;51595;24.180;-110.296;2022-09-24T16:24:07;8.80;;;2.58;;
63874;SDS011;51595;24.180;-110.296;2022-09-24T16:26:34;12.85;;;2.63;;
63874;SDS011;51595;24.180;-110.296;2022-09-24T16:29:02;11.95;;;2.72;;
63874;SDS011;51595;24.180;-110.296;2022-09-24T16:31:29;6.30;;;2.30;;
63874;SDS011;51595;24.180;-110.296;2022-09-24T16:33:56;11.90;;;2.28;;
63874;SDS011;51595;24.180;-110.296;2022-09-24T16:36:22;16.60;;;2.92;;
63874;SDS011;51595;24.180;-110.296;2022-09-24T16:38:49;12.38;;;2.30;;
63874;SDS011;51595;24.180;-110.296;2022-09-24T16:41:19;14.23;;;2.38;;
63874;SDS011;51595;24.180;-110.296;2022-09-24T16:43:47;8.65;;;2.33;;
63874;SDS011;51595;24.180;-110.296;2022-09-24T16:46:13;9.48;;;2.38;;
63874;SDS011;51595;24.180;-110.296;2022-09-24T16:48:39;6.40;;;2.33;;
63874;SDS011;51595;24.180;-110.296;2022-09-24T16:51:09;9.18;;;2.30;;
63874;SDS011;51595;24.180;-110.296;2022-09-24T16:53:36;6.60;;;1.95;;
63874;SDS011;51595;24.180;-110.296;2022-09-24T16:58:30;8.45;;;2.35;;